Central Wisconsin Airport
KCWA : now visible

Airfield :











YOU CAN JOIN US ON...

 
LOGIN :

Register | Disclaimer

   EN    FR    IT 

 









Legend :    VFR   Marginal VFR   IFR   Intensive IFR   Very Intensive IFR
Visi :
Ceiling :
>= 8 km
>= 3000ft
5 to 8 km
1000 to 3000 ft
1500m to 5 km
500 to 1000 ft
800 to 1500m
200 to 500 ft
< 800m
< 200 ft
Symbols :   Thunderstorms  Fog  Heavy snow  Heavy precipitations  Wind > 20 kt






- Airport Elevation : 1277 ft


KCWA - Central Wisconsin

CURRENT METAR :
  • 241147Z COR 00000KT 10SM CLR M13/M16 A3003

EXPIRED METARs :
  • 241135Z AUTO 00000G13KT 10SM CLR M13/M16 A3002 RMK AO2
  • 241115Z AUTO 00000G12KT 10SM CLR M13/M16 A3002 RMK AO2
  • 241055Z AUTO 00000KT 10SM CLR M13/M15 A3002 RMK AO2
  • 241035Z AUTO 00000KT 10SM CLR M13/M15 A3001 RMK AO2
  • 241015Z AUTO 00000KT 10SM CLR M13/M15 A3001 RMK AO2
  • 240955Z AUTO VRB03KT 10SM CLR M13/M15 A3001 RMK AO2
  • 240935Z AUTO 00000KT 10SM CLR M12/M15 A3001 RMK AO2
  • 240915Z AUTO VRB04G11KT 10SM CLR M12/M16 A3000 RMK AO2
  • 240855Z AUTO 02004KT 10SM CLR M12/M15 A3001 RMK AO2
  • 240835Z AUTO 02005KT 10SM CLR M12/M15 A3001 RMK AO2
  • 240815Z AUTO VRB05KT 10SM CLR M11/M15 A3001 RMK AO2
  • 240755Z AUTO VRB05KT 10SM CLR M11/M15 A3001 RMK AO2
  • 240735Z AUTO 36007KT 10SM CLR M11/M15 A3001 RMK AO2
  • 240715Z AUTO 01006KT 10SM CLR M11/M15 A3000 RMK AO2

TAF KCWA
Valid from the 24 at 12:00 until the 25 at 12:00 UTC


241133Z 2412/2512 VRB04KT P6SM SKC
FM241500 20007KT P6SM SKC
FM241900 21012G20KT P6SM SCT250
FM250100 21012G19KT P6SM SCT100 SCT250 WS020/23045KT
FM250800 24009G16KT P6SM BKN100 WS020/27040KT
KZMP FIR / North America



MET'MAP, your aeronautical weather chart ! - Copyright ORBIFLY December 2007 - Disclaimer

ORBIFLY MET'MAP TEAM :

Programming & Development : Alexandra Zaïnal
Original concept : Baudouin d'Aumeries
Technical & hardware support : Manuel Goepfert
Assistance : Marc-Olivier Méhu




SOURCES & CREDITS :

   NOAA       Earth
Advisory